Time;durP1;ratioP1;P1;durP2;ratioP2;P2;SDS_P1;SDS_P2;PMS_P1;PMS_P2;Temp;Humidity;BMP_temperature;BMP_pressure;BME280_temperature;BME280_humidity;BME280_pressure;Samples;Min_cycle;Max_cycle;Signal;HPM_P1;HPM_P2
2022/06/01 00:00:10;;;;;;;7.35;4.47;;;;;;;21.05;73.99;99841.06;5083772;28;20032;-67
2022/06/01 00:02:37;;;;;;;12.27;5.13;;;;;;;21.10;74.52;99838.50;5106194;28;20368;-67
2022/06/01 00:05:04;;;;;;;12.07;4.75;;;;;;;21.06;75.23;99840.00;5108433;28;20039;-67
2022/06/01 00:07:29;;;;;;;10.50;4.60;;;;;;;21.12;74.50;99843.66;5106430;28;20252;-67
2022/06/01 00:09:55;;;;;;;7.22;4.03;;;;;;;21.03;73.82;99838.59;5104249;28;20028;-68
2022/06/01 00:12:22;;;;;;;10.00;4.18;;;;;;;20.93;73.80;99835.63;5107159;28;20032;-67
2022/06/01 00:14:47;;;;;;;9.18;4.32;;;;;;;20.92;73.93;99836.69;5104262;28;20040;-67
2022/06/01 00:17:13;;;;;;;8.60;4.00;;;;;;;20.89;73.57;99831.75;5105687;28;20028;-67
2022/06/01 00:19:38;;;;;;;10.00;4.20;;;;;;;20.75;73.68;99837.50;5105986;28;20256;-67
2022/06/01 00:22:14;;;;;;;8.35;4.32;;;;;;;20.86;73.14;99826.81;5105030;28;20036;-68
2022/06/01 00:24:41;;;;;;;6.90;3.90;;;;;;;20.95;72.43;99825.47;5103016;28;20342;-67
2022/06/01 00:27:07;;;;;;;11.50;4.68;;;;;;;20.92;72.36;99825.91;5106835;28;20039;-67
2022/06/01 00:29:32;;;;;;;12.15;3.80;;;;;;;21.00;72.27;99833.66;5124471;28;20036;-67
2022/06/01 00:31:58;;;;;;;10.15;4.22;;;;;;;21.04;72.11;99826.78;5107071;28;20341;-67
2022/06/01 00:34:23;;;;;;;6.85;3.88;;;;;;;21.06;72.12;99833.81;5103947;28;20036;-67
2022/06/01 00:36:49;;;;;;;7.28;3.95;;;;;;;21.15;72.00;99833.25;5107576;28;20028;-68
2022/06/01 00:39:14;;;;;;;7.75;4.10;;;;;;;21.13;71.54;99829.16;5104256;28;20333;-67
2022/06/01 00:41:40;;;;;;;14.07;4.70;;;;;;;20.81;73.34;99839.31;5102999;28;20264;-67
2022/06/01 00:44:06;;;;;;;12.57;4.57;;;;;;;20.47;74.78;99838.84;5107411;28;20214;-67
2022/06/01 00:46:32;;;;;;;16.30;4.70;;;;;;;20.36;75.29;99834.19;5104114;28;20069;-67
2022/06/01 00:49:20;;;;;;;10.50;4.45;;;;;;;20.29;75.06;99836.13;5103549;28;20322;-67
2022/06/01 00:51:47;;;;;;;11.70;4.40;;;;;;;20.42;74.02;99833.31;5105300;28;20043;-67
2022/06/01 00:54:14;;;;;;;13.52;4.32;;;;;;;20.53;73.43;99835.25;5106196;28;20093;-67
2022/06/01 00:56:47;;;;;;;8.02;4.25;;;;;;;20.56;74.29;99828.63;5105266;28;20091;-67
2022/06/01 00:59:24;;;;;;;8.88;4.30;;;;;;;20.71;74.02;99826.34;5102753;28;20035;-67
2022/06/01 01:01:53;;;;;;;8.75;4.75;;;;;;;20.85;74.01;99825.19;5103103;28;20024;-68
2022/06/01 01:04:20;;;;;;;9.18;4.78;;;;;;;20.93;73.46;99826.72;5106138;28;20237;-67
2022/06/01 01:06:46;;;;;;;6.88;4.50;;;;;;;20.94;73.37;99831.06;5105784;28;20055;-67
2022/06/01 01:09:12;;;;;;;13.85;4.90;;;;;;;20.87;74.35;99817.69;5103661;28;20047;-67
2022/06/01 01:11:52;;;;;;;8.35;4.40;;;;;;;20.95;73.38;99830.00;5105483;28;20044;-68
2022/06/01 01:14:23;;;;;;;9.70;4.63;;;;;;;20.98;73.23;99829.56;5106365;28;20091;-67
2022/06/01 01:16:49;;;;;;;10.63;5.05;;;;;;;20.99;73.74;99825.81;5102702;28;20095;-67
2022/06/01 01:19:36;;;;;;;8.68;4.78;;;;;;;21.08;73.84;99820.94;5103277;28;20264;-68
2022/06/01 01:22:27;;;;;;;13.73;5.18;;;;;;;21.00;72.60;99824.78;5109638;28;20149;-67
2022/06/01 01:25:17;;;;;;;9.27;4.07;;;;;;;21.04;72.37;99821.41;5102367;28;20046;-67
2022/06/01 01:27:45;;;;;;;8.25;4.60;;;;;;;20.68;73.41;99818.75;5104503;28;20032;-67
2022/06/01 01:31:01;;;;;;;10.60;5.13;;;;;;;20.89;73.02;99817.47;5108305;28;20115;-67
2022/06/01 01:33:29;;;;;;;7.45;4.45;;;;;;;20.90;72.48;99814.56;5020161;28;20336;-67
2022/06/01 01:36:02;;;;;;;7.60;4.25;;;;;;;20.88;72.98;99816.66;5019780;28;20037;-67
2022/06/01 01:39:09;;;;;;;10.80;5.13;;;;;;;20.89;72.56;99814.78;5071713;28;20047;-67
2022/06/01 01:41:48;;;;;;;7.63;4.50;;;;;;;20.85;72.91;99811.72;5083085;28;20043;-67
2022/06/01 01:44:28;;;;;;;8.32;4.78;;;;;;;20.86;72.50;99817.91;5120696;28;20065;-67
2022/06/01 01:46:55;;;;;;;10.00;5.03;;;;;;;20.69;72.27;99815.81;5102885;28;20032;-67
2022/06/01 01:49:23;;;;;;;13.15;4.90;;;;;;;20.77;72.69;99816.56;5101970;28;20348;-67
2022/06/01 01:51:51;;;;;;;9.32;4.38;;;;;;;20.87;71.72;99820.38;5083511;28;20031;-67
2022/06/01 01:54:19;;;;;;;12.23;4.47;;;;;;;20.90;71.67;99811.84;5102988;28;20054;-67
2022/06/01 01:57:22;;;;;;;11.05;4.43;;;;;;;20.83;72.07;99808.44;5102033;28;20047;-67
2022/06/01 02:00:17;;;;;;;9.27;4.82;;;;;;;20.58;71.96;99815.75;5103986;28;20028;-67
2022/06/01 02:03:07;;;;;;;8.77;4.55;;;;;;;20.42;72.60;99809.13;5096551;28;20054;-67
2022/06/01 02:08:30;;;;;;;7.53;4.55;;;;;;;20.59;72.12;99799.41;5104176;28;20078;-67
2022/06/01 02:14:09;;;;;;;12.73;4.60;;;;;;;20.64;72.80;99802.22;5103282;28;20878;-67
2022/06/01 02:16:39;;;;;;;10.40;4.75;;;;;;;20.65;72.67;99808.44;5102346;28;20036;-67
2022/06/01 02:19:11;;;;;;;9.02;4.72;;;;;;;20.61;73.01;99813.44;5101797;28;20047;-67
2022/06/01 02:21:36;;;;;;;11.32;4.97;;;;;;;20.55;72.68;99817.03;5101805;28;20036;-67
2022/06/01 02:24:02;;;;;;;9.88;4.47;;;;;;;20.54;72.78;99819.94;5102392;28;20038;-67
2022/06/01 02:26:29;;;;;;;11.23;4.88;;;;;;;20.53;73.83;99818.31;5102738;28;20377;-68
2022/06/01 02:29:13;;;;;;;7.03;4.50;;;;;;;20.50;73.51;99822.25;5101565;28;20036;-67
2022/06/01 02:31:41;;;;;;;7.93;4.55;;;;;;;20.47;73.75;99822.72;5112306;28;20047;-67
2022/06/01 02:34:09;;;;;;;13.30;5.13;;;;;;;20.52;73.24;99824.72;5121824;28;20036;-67
2022/06/01 02:36:36;;;;;;;15.02;4.60;;;;;;;20.58;73.50;99830.03;5110472;28;20058;-67
2022/06/01 02:39:07;;;;;;;10.50;4.45;;;;;;;20.56;73.71;99836.69;5102480;28;20036;-67
2022/06/01 02:44:18;;;;;;;10.25;5.07;;;;;;;20.28;75.13;99838.00;5106965;28;20030;-67
2022/06/01 02:46:43;;;;;;;10.68;4.50;;;;;;;20.25;74.67;99832.25;5100822;28;20028;-67
2022/06/01 02:49:08;;;;;;;9.75;4.63;;;;;;;20.33;74.07;99824.69;5102403;28;20362;-67
2022/06/01 02:51:34;;;;;;;9.10;4.32;;;;;;;20.26;74.05;99828.50;5102511;28;20072;-68
2022/06/01 02:53:59;;;;;;;8.38;4.57;;;;;;;20.27;73.80;99825.59;5100877;28;20043;-67
2022/06/01 02:56:25;;;;;;;10.70;4.30;;;;;;;20.16;74.46;99828.19;5104388;28;20028;-68
2022/06/01 02:58:51;;;;;;;15.35;4.53;;;;;;;20.29;73.77;99820.81;5101183;28;20281;-67
2022/06/01 03:01:16;;;;;;;11.77;4.30;;;;;;;20.34;73.44;99823.66;5101839;28;20209;-67
2022/06/01 03:03:42;;;;;;;12.93;3.90;;;;;;;20.22;73.48;99820.06;5104276;28;20035;-67
2022/06/01 03:06:08;;;;;;;15.50;3.47;;;;;;;20.28;72.98;99829.94;5100776;28;20059;-67
2022/06/01 03:08:34;;;;;;;13.25;3.63;;;;;;;20.29;73.17;99828.06;5101858;28;20028;-67
2022/06/01 03:10:59;;;;;;;8.98;3.88;;;;;;;20.20;73.53;99830.22;5103658;28;20035;-67
2022/06/01 03:13:25;;;;;;;13.00;3.63;;;;;;;20.23;73.18;99824.41;5101843;28;20043;-67
2022/06/01 03:15:52;;;;;;;13.45;3.60;;;;;;;20.20;73.27;99830.22;5100585;28;20238;-66
2022/06/01 03:18:18;;;;;;;14.20;3.50;;;;;;;20.02;74.07;99839.06;5103808;28;20044;-66
2022/06/01 03:20:43;;;;;;;10.23;3.55;;;;;;;19.98;74.43;99829.81;5103251;28;20039;-67
2022/06/01 03:23:09;;;;;;;12.07;3.70;;;;;;;19.91;74.72;99826.34;5100483;28;20031;-67
2022/06/01 03:25:38;;;;;;;16.02;3.75;;;;;;;20.01;74.21;99834.75;5102061;28;20082;-67
2022/06/01 03:28:05;;;;;;;10.05;3.53;;;;;;;20.11;74.11;99834.25;5107753;28;20203;-67
2022/06/01 03:30:32;;;;;;;11.32;3.63;;;;;;;20.23;72.99;99829.78;5101472;28;20265;-67
2022/06/01 03:32:58;;;;;;;8.43;3.58;;;;;;;20.34;72.73;99831.72;5102515;28;20067;-67
2022/06/01 03:35:26;;;;;;;6.85;3.67;;;;;;;20.40;72.28;99838.09;5105176;28;20322;-66
2022/06/01 03:37:52;;;;;;;10.48;3.17;;;;;;;20.45;71.72;99834.75;5104371;28;20083;-67
2022/06/01 03:40:20;;;;;;;12.35;3.70;;;;;;;20.53;71.13;99843.34;5104592;28;20032;-67
2022/06/01 03:42:45;;;;;;;19.75;4.10;;;;;;;20.62;72.48;99847.38;5107955;28;20036;-67
2022/06/01 03:47:56;;;;;;;10.65;4.18;;;;;;;20.65;72.16;99844.22;5104812;28;20093;-67
2022/06/01 03:50:24;;;;;;;15.73;4.25;;;;;;;20.63;71.28;99843.63;5107150;28;20044;-67
2022/06/01 03:52:50;;;;;;;10.35;3.45;;;;;;;20.59;70.71;99849.69;5107198;28;20100;-67
2022/06/01 03:55:15;;;;;;;11.07;3.63;;;;;;;20.69;69.71;99842.72;5106328;28;20032;-67
2022/06/01 03:57:42;;;;;;;5.60;3.50;;;;;;;20.67;69.65;99839.44;5107615;28;20263;-68
2022/06/01 04:00:11;;;;;;;10.32;3.78;;;;;;;20.53;70.49;99839.81;5106034;28;20110;-67
2022/06/01 04:02:37;;;;;;;9.35;3.63;;;;;;;20.58;70.11;99837.28;5110595;28;20146;-67
2022/06/01 04:05:03;;;;;;;8.18;3.75;;;;;;;20.79;69.31;99834.13;5105398;28;20106;-67
2022/06/01 04:07:29;;;;;;;20.52;6.20;;;;;;;20.80;69.57;99834.94;5107706;28;20097;-67
2022/06/01 04:09:54;;;;;;;7.85;3.88;;;;;;;20.95;69.43;99838.09;5105861;28;20322;-67
2022/06/01 04:12:19;;;;;;;9.23;4.00;;;;;;;20.94;69.07;99834.59;5107167;28;20028;-68
2022/06/01 04:14:45;;;;;;;6.70;4.03;;;;;;;20.93;68.83;99838.31;5104200;28;20032;-67
2022/06/01 04:17:10;;;;;;;12.27;4.05;;;;;;;21.14;68.01;99834.31;5103270;28;20028;-67
2022/06/01 04:19:36;;;;;;;11.70;4.43;;;;;;;21.33;67.76;99829.72;5107442;28;20072;-67
2022/06/01 04:22:02;;;;;;;8.65;3.72;;;;;;;21.44;67.09;99831.63;5106458;28;20028;-67
2022/06/01 04:24:31;;;;;;;12.43;3.80;;;;;;;21.89;65.27;99837.34;5106451;28;20032;-67
2022/06/01 04:26:57;;;;;;;7.13;4.22;;;;;;;22.35;62.87;99843.00;5107129;28;20035;-67
2022/06/01 04:29:22;;;;;;;13.40;6.40;;;;;;;22.50;62.01;99840.63;5106142;28;20383;-67
2022/06/01 04:31:48;;;;;;;9.27;5.30;;;;;;;23.03;60.56;99853.09;5107144;28;20259;-67
2022/06/01 04:34:14;;;;;;;28.83;12.60;;;;;;;23.11;59.82;99853.53;5106580;28;20032;-67
2022/06/01 04:36:40;;;;;;;21.23;10.68;;;;;;;23.33;59.33;99858.25;5106030;28;20273;-67
2022/06/01 04:39:07;;;;;;;18.80;10.70;;;;;;;23.46;58.93;99857.94;5105593;28;20032;-68
2022/06/01 04:41:32;;;;;;;54.85;32.03;;;;;;;23.62;58.71;99853.66;5105045;28;20038;-68
2022/06/01 04:43:58;;;;;;;184.73;112.55;;;;;;;23.98;57.77;99855.91;5106759;28;20028;-67
2022/06/01 04:46:23;;;;;;;115.32;71.97;;;;;;;24.01;56.44;99849.19;5105887;28;20031;-68
2022/06/01 04:48:49;;;;;;;32.15;19.13;;;;;;;24.12;56.89;99853.66;5106111;28;20202;-68
2022/06/01 04:51:15;;;;;;;39.20;24.02;;;;;;;24.31;56.11;99859.66;5106042;28;20350;-68
2022/06/01 04:53:44;;;;;;;40.28;26.98;;;;;;;24.29;56.02;99859.91;5105318;28;20035;-68
2022/06/01 04:56:13;;;;;;;27.83;14.82;;;;;;;24.39;55.69;99859.22;5108416;28;20329;-68
2022/06/01 04:58:39;;;;;;;33.20;23.63;;;;;;;24.50;55.72;99855.59;5107900;28;20134;-68
2022/06/01 05:01:06;;;;;;;71.40;47.72;;;;;;;24.75;54.88;99852.38;5107246;28;20063;-68
2022/06/01 05:03:31;;;;;;;20.50;12.13;;;;;;;25.04;54.33;99856.59;5105899;28;20042;-65
2022/06/01 05:05:56;;;;;;;51.83;38.03;;;;;;;25.28;53.95;99862.53;5107176;28;20039;-68
2022/06/01 05:08:22;;;;;;;20.85;14.32;;;;;;;25.54;52.83;99858.16;5108145;28;20027;-68
2022/06/01 05:10:47;;;;;;;25.90;13.63;;;;;;;25.71;52.16;99860.78;5107706;28;20047;-66
2022/06/01 05:13:18;;;;;;;24.73;15.05;;;;;;;25.68;51.83;99864.03;5105282;28;20031;-65
2022/06/01 05:15:52;;;;;;;18.65;9.82;;;;;;;25.64;51.92;99852.03;5105053;28;20031;-68
2022/06/01 05:18:18;;;;;;;11.75;5.53;;;;;;;25.36;52.92;99867.50;5108225;28;20325;-68
2022/06/01 05:20:44;;;;;;;11.63;6.25;;;;;;;25.32;52.82;99863.66;5105951;28;20050;-68
2022/06/01 05:23:09;;;;;;;16.42;6.35;;;;;;;25.62;53.33;99867.72;5104721;28;20055;-68
2022/06/01 05:25:35;;;;;;;16.20;11.77;;;;;;;25.96;51.43;99865.59;5105615;28;20036;-66
2022/06/01 05:28:00;;;;;;;17.90;7.68;;;;;;;26.31;50.35;99876.72;5105231;28;20059;-68
2022/06/01 05:30:26;;;;;;;17.27;7.97;;;;;;;26.47;49.65;99876.84;5106614;28;20032;-66
2022/06/01 05:32:52;;;;;;;76.63;42.58;;;;;;;26.26;49.58;99873.97;5105924;28;20026;-66
2022/06/01 05:35:17;;;;;;;48.55;29.30;;;;;;;26.27;49.43;99877.50;5104743;28;20032;-66
2022/06/01 05:37:43;;;;;;;18.25;8.98;;;;;;;26.25;49.55;99875.06;5105182;28;20218;-68
2022/06/01 05:40:08;;;;;;;11.90;7.10;;;;;;;26.16;49.54;99863.06;5104993;28;20039;-68
2022/06/01 05:42:34;;;;;;;18.52;15.23;;;;;;;26.63;49.29;99859.56;5103972;28;20035;-68
2022/06/01 05:44:59;;;;;;;8.43;5.60;;;;;;;27.15;47.39;99864.97;5086700;28;20036;-66
2022/06/01 05:47:25;;;;;;;13.30;8.82;;;;;;;27.42;45.85;99880.25;5104805;28;20043;-66
2022/06/01 05:49:50;;;;;;;12.70;6.13;;;;;;;27.59;45.65;99868.03;5105019;28;20027;-66
2022/06/01 05:52:19;;;;;;;9.60;6.13;;;;;;;27.89;45.26;99863.72;5104964;28;20333;-66
2022/06/01 05:54:46;;;;;;;28.88;18.15;;;;;;;28.27;44.70;99865.09;5104279;28;20031;-66
2022/06/01 05:57:11;;;;;;;18.90;12.60;;;;;;;28.39;43.60;99862.06;5103848;28;20035;-66
2022/06/01 05:59:37;;;;;;;17.35;9.40;;;;;;;28.27;43.19;99859.63;5101812;28;20028;-65
2022/06/01 06:02:02;;;;;;;9.52;4.30;;;;;;;28.26;43.17;99849.84;5102741;28;20032;-66
2022/06/01 06:04:28;;;;;;;8.13;3.72;;;;;;;28.29;44.01;99841.94;5104083;28;20040;-66
2022/06/01 06:06:54;;;;;;;7.80;3.10;;;;;;;28.97;43.00;99870.59;5105567;28;20205;-66
2022/06/01 06:09:24;;;;;;;7.60;2.55;;;;;;;29.31;42.37;99863.34;5104141;28;20032;-66
2022/06/01 06:11:51;;;;;;;5.38;2.60;;;;;;;29.32;40.73;99875.88;5106930;28;20273;-66
2022/06/01 06:14:17;;;;;;;7.40;2.78;;;;;;;29.30;41.86;99866.34;5104366;28;20031;-66
2022/06/01 06:16:44;;;;;;;7.70;3.30;;;;;;;29.21;42.19;99866.94;5102670;28;20051;-66
2022/06/01 06:19:13;;;;;;;5.50;3.00;;;;;;;29.64;41.08;99860.94;5109196;28;21127;-66
2022/06/01 06:21:39;;;;;;;7.72;3.10;;;;;;;29.58;40.26;99871.09;5106767;28;20036;-65
2022/06/01 06:24:11;;;;;;;8.13;3.15;;;;;;;29.78;40.32;99851.81;5115283;28;20045;-66
2022/06/01 06:26:38;;;;;;;7.68;3.03;;;;;;;29.91;40.02;99864.00;5112233;28;20035;-66
2022/06/01 06:29:08;;;;;;;8.05;2.80;;;;;;;29.95;39.42;99861.50;5107616;28;20039;-66
2022/06/01 06:31:34;;;;;;;11.60;2.60;;;;;;;30.31;39.41;99859.28;5111663;28;20031;-65
2022/06/01 06:33:59;;;;;;;8.50;3.10;;;;;;;30.45;38.32;99855.59;5108107;28;20313;-66
2022/06/01 06:36:25;;;;;;;6.13;3.03;;;;;;;30.48;38.45;99859.66;5108224;28;20028;-66
2022/06/01 06:38:50;;;;;;;8.68;5.43;;;;;;;30.82;37.80;99862.28;5119051;28;20027;-66
2022/06/01 06:41:17;;;;;;;8.35;3.58;;;;;;;30.84;38.64;99853.78;5109900;28;20039;-66
2022/06/01 06:43:43;;;;;;;5.80;2.47;;;;;;;30.70;37.93;99854.50;5121888;28;20039;-66
2022/06/01 06:46:14;;;;;;;10.60;3.28;;;;;;;31.05;37.45;99855.94;5116615;28;20073;-67
2022/06/01 06:48:41;;;;;;;7.32;3.13;;;;;;;30.96;37.82;99852.25;5121529;28;20031;-66
2022/06/01 06:51:08;;;;;;;12.85;5.97;;;;;;;30.62;38.79;99855.16;5121567;28;20055;-67
2022/06/01 06:53:33;;;;;;;6.32;3.38;;;;;;;30.75;38.49;99846.22;5116569;28;20028;-67
2022/06/01 06:55:59;;;;;;;6.65;3.65;;;;;;;30.81;38.61;99849.72;5121338;28;20063;-67
2022/06/01 06:58:25;;;;;;;11.68;3.83;;;;;;;30.83;38.87;99842.03;5121507;28;20074;-67
2022/06/01 07:00:51;;;;;;;8.45;2.90;;;;;;;31.03;37.28;99849.97;5121240;28;20206;-67
2022/06/01 07:03:17;;;;;;;11.05;3.08;;;;;;;31.00;36.80;99839.63;5121204;28;20041;-67
2022/06/01 07:08:28;;;;;;;7.97;2.83;;;;;;;31.32;36.43;99844.41;5120153;28;20332;-67
2022/06/01 07:10:55;;;;;;;8.70;4.03;;;;;;;30.87;37.53;99839.53;5121892;28;20032;-66
2022/06/01 07:13:21;;;;;;;12.45;4.35;;;;;;;30.76;37.21;99838.84;5125292;28;20374;-67
2022/06/01 07:15:47;;;;;;;8.13;3.22;;;;;;;31.08;37.44;99841.69;5124339;28;20081;-67
2022/06/01 07:18:13;;;;;;;12.75;3.38;;;;;;;31.43;35.30;99842.31;5125274;28;20072;-66
2022/06/01 07:20:39;;;;;;;6.28;3.13;;;;;;;31.30;35.67;99843.06;5120895;28;20329;-67
2022/06/01 07:23:05;;;;;;;9.95;3.60;;;;;;;31.06;36.07;99843.09;5125061;28;20035;-67
2022/06/01 07:25:31;;;;;;;8.60;3.38;;;;;;;30.91;36.86;99843.31;5119765;28;20039;-67
2022/06/01 07:27:57;;;;;;;57.33;16.45;;;;;;;31.36;36.03;99845.44;5125431;28;20072;-66
2022/06/01 07:30:23;;;;;;;70.78;49.92;;;;;;;31.74;35.28;99838.00;5124207;28;20201;-67
2022/06/01 07:32:49;;;;;;;87.85;65.47;;;;;;;31.86;34.89;99831.25;5123545;28;20329;-67
2022/06/01 07:35:16;;;;;;;89.32;61.25;;;;;;;32.25;34.37;99823.44;5125770;28;20082;-67
2022/06/01 07:43:21;;;;;;;23.52;18.42;;;;;;;32.02;34.20;99824.38;5082106;28;20094;-67
2022/06/01 07:45:49;;;;;;;28.50;19.60;;;;;;;32.07;34.64;99822.34;5118189;28;20031;-67
2022/06/01 07:48:16;;;;;;;11.98;6.38;;;;;;;32.49;33.93;99820.50;5124848;28;20042;-66
2022/06/01 07:50:43;;;;;;;9.07;3.45;;;;;;;31.95;34.21;99818.50;5123512;28;20024;-66
2022/06/01 07:53:09;;;;;;;29.88;6.32;;;;;;;32.02;34.73;99819.72;5123940;28;20063;-67
2022/06/01 07:55:36;;;;;;;9.20;3.50;;;;;;;32.76;33.85;99807.88;5122454;28;20042;-67
2022/06/01 07:58:02;;;;;;;6.35;3.95;;;;;;;32.12;33.73;99813.22;5124601;28;20088;-67
2022/06/01 08:00:29;;;;;;;34.42;27.13;;;;;;;32.45;34.11;99822.22;5118727;28;20035;-66
2022/06/01 08:02:55;;;;;;;20.17;13.02;;;;;;;32.87;32.85;99818.34;5124573;28;20023;-67
2022/06/01 08:05:21;;;;;;;21.55;11.65;;;;;;;33.49;32.46;99818.63;5119186;28;20034;-67
2022/06/01 08:07:48;;;;;;;17.65;9.43;;;;;;;33.90;31.73;99806.63;5124402;28;20032;-67
2022/06/01 08:10:17;;;;;;;12.93;7.93;;;;;;;33.70;32.62;99816.16;5124884;28;20055;-67
2022/06/01 08:15:27;;;;;;;7.88;3.30;;;;;;;33.87;31.73;99819.03;5123529;28;20043;-66
2022/06/01 08:17:54;;;;;;;15.85;7.00;;;;;;;33.57;32.48;99812.38;5118611;28;20031;-67
2022/06/01 08:20:20;;;;;;;12.43;7.72;;;;;;;33.27;33.06;99818.53;5120020;28;20039;-67
2022/06/01 08:22:45;;;;;;;18.05;13.15;;;;;;;33.07;33.84;99813.53;5119276;28;20062;-67
2022/06/01 08:25:13;;;;;;;8.88;3.08;;;;;;;33.09;32.64;99803.06;5122423;28;20043;-67
2022/06/01 08:27:39;;;;;;;14.95;3.65;;;;;;;33.61;32.48;99810.63;5121374;28;20032;-67
2022/06/01 08:30:05;;;;;;;19.23;5.70;;;;;;;33.00;33.33;99806.53;5123149;28;20052;-66
2022/06/01 08:32:30;;;;;;;6.47;3.13;;;;;;;33.16;31.80;99809.75;5108701;28;20333;-66
2022/06/01 08:34:56;;;;;;;11.40;5.40;;;;;;;33.76;31.42;99806.69;5123060;28;20038;-66
2022/06/01 08:37:21;;;;;;;12.60;7.22;;;;;;;33.70;31.97;99802.44;5122709;28;20034;-66
2022/06/01 08:39:48;;;;;;;9.52;3.83;;;;;;;34.00;31.63;99811.84;5123204;28;20305;-67
2022/06/01 08:42:16;;;;;;;12.02;7.03;;;;;;;34.11;31.84;99804.13;5121125;28;20269;-67
2022/06/01 08:44:46;;;;;;;11.15;6.82;;;;;;;34.33;30.31;99803.28;5117094;28;20031;-66
2022/06/01 08:47:32;;;;;;;6.05;2.80;;;;;;;34.12;28.07;99806.56;5122422;28;20039;-66
2022/06/01 08:50:01;;;;;;;6.55;3.00;;;;;;;33.95;29.09;99810.03;5123000;28;20108;-66
2022/06/01 08:52:29;;;;;;;9.30;4.25;;;;;;;33.85;29.51;99806.75;5122468;28;20350;-66
2022/06/01 08:54:55;;;;;;;11.32;8.00;;;;;;;33.41;30.48;99805.63;5117150;28;20073;-66
2022/06/01 08:57:25;;;;;;;7.20;3.20;;;;;;;33.81;29.77;99802.97;5122428;28;20036;-67
2022/06/01 09:00:11;;;;;;;7.95;3.50;;;;;;;33.85;29.24;99793.84;5116880;28;20027;-66
2022/06/01 09:02:59;;;;;;;5.05;2.60;;;;;;;34.14;27.97;99796.06;5117452;28;20035;-66
2022/06/01 09:05:56;;;;;;;6.82;2.63;;;;;;;34.05;27.56;99794.41;5116865;28;20031;-66
2022/06/01 09:08:33;;;;;;;7.72;2.80;;;;;;;34.03;27.74;99791.16;5119041;28;20046;-66
2022/06/01 09:11:14;;;;;;;8.65;2.55;;;;;;;34.10;29.74;99777.78;5081607;28;1147142;-66
2022/06/01 09:14:04;;;;;;;3.72;2.00;;;;;;;33.96;25.78;99780.63;5122912;28;20320;-66
2022/06/01 09:16:39;;;;;;;7.10;2.70;;;;;;;33.56;26.67;99782.50;5118069;28;20039;-66
2022/06/01 09:19:14;;;;;;;6.63;2.28;;;;;;;33.45;26.47;99779.19;5123057;28;20082;-67
2022/06/01 09:24:32;;;;;;;5.82;1.92;;;;;;;33.61;26.70;99777.69;5116323;28;20034;-67
2022/06/01 09:27:11;;;;;;;5.00;2.05;;;;;;;33.74;28.09;99772.41;5117169;28;20031;-67
2022/06/01 09:29:52;;;;;;;11.63;2.10;;;;;;;33.72;28.27;99763.69;5118443;28;20028;-67
2022/06/01 09:32:28;;;;;;;3.70;2.25;;;;;;;33.73;28.63;99766.13;5122663;28;20051;-67
2022/06/01 09:34:59;;;;;;;7.72;2.17;;;;;;;33.78;28.55;99763.22;5118199;28;20023;-67
2022/06/01 09:37:28;;;;;;;6.07;2.22;;;;;;;33.84;27.49;99762.00;5122075;28;20039;-67
2022/06/01 09:40:00;;;;;;;2.80;1.98;;;;;;;33.74;27.74;99766.91;5123008;28;20083;-67
2022/06/01 09:42:41;;;;;;;7.47;2.17;;;;;;;33.36;29.20;99752.81;5122814;28;20077;-67
2022/06/01 09:45:22;;;;;;;11.73;2.40;;;;;;;33.08;29.61;99766.59;5111637;28;20066;-67
2022/06/01 09:47:50;;;;;;;3.65;1.77;;;;;;;32.98;29.49;99756.66;5118543;28;20360;-66
2022/06/01 09:50:24;;;;;;;4.70;2.22;;;;;;;32.82;29.11;99766.38;5122591;28;20471;-67
2022/06/01 09:52:58;;;;;;;9.15;2.53;;;;;;;32.92;29.70;99760.66;5122412;28;20076;-65
2022/06/01 09:55:25;;;;;;;3.20;2.40;;;;;;;32.74;29.46;99761.59;5122129;28;20034;-66
2022/06/01 09:58:07;;;;;;;7.03;3.75;;;;;;;32.84;29.18;99755.09;5122330;28;20035;-67
2022/06/01 10:06:17;;;;;;;4.35;2.45;;;;;;;32.06;28.32;99752.25;5105725;28;20031;-67
2022/06/01 10:09:13;;;;;;;10.43;2.58;;;;;;;31.96;29.60;99743.44;5104184;28;20042;-66
2022/06/01 10:11:46;;;;;;;5.07;2.25;;;;;;;31.74;29.23;99742.19;5116598;28;20031;-66
2022/06/01 10:14:16;;;;;;;17.53;2.73;;;;;;;31.41;30.54;99735.09;5120240;28;20035;-67
2022/06/01 10:17:22;;;;;;;4.63;2.17;;;;;;;31.59;29.52;99739.69;5122259;28;20472;-67
2022/06/01 10:20:25;;;;;;;4.15;2.58;;;;;;;31.71;29.21;99731.84;5122307;28;20031;-67
2022/06/01 10:23:06;;;;;;;4.15;2.10;;;;;;;31.56;29.59;99723.06;5120916;28;20284;-67
2022/06/01 10:25:44;;;;;;;4.38;1.90;;;;;;;31.61;29.29;99731.19;5121669;28;20031;-67
2022/06/01 10:28:17;;;;;;;4.43;1.92;;;;;;;31.36;30.64;99714.09;5119144;28;20229;-66
2022/06/01 10:30:49;;;;;;;2.17;1.60;;;;;;;31.37;28.98;99726.69;5122268;28;20348;-66
2022/06/01 10:33:31;;;;;;;2.00;1.73;;;;;;;30.69;29.91;99732.59;5115956;28;20032;-66
2022/06/01 10:36:03;;;;;;;5.20;1.73;;;;;;;30.40;29.48;99727.25;5120516;28;20027;-66
2022/06/01 10:38:41;;;;;;;2.47;1.70;;;;;;;30.53;29.99;99730.34;5121771;28;20161;-66
2022/06/01 10:41:23;;;;;;;4.30;1.60;;;;;;;30.02;29.88;99733.69;5095416;28;20225;-66
2022/06/01 10:43:57;;;;;;;5.28;2.22;;;;;;;30.10;30.37;99724.84;5108588;28;20031;-66
2022/06/01 10:46:23;;;;;;;4.55;1.63;;;;;;;30.24;29.71;99728.53;5108161;28;20059;-66
2022/06/01 10:49:06;;;;;;;5.50;2.13;;;;;;;30.46;29.60;99725.25;5104331;28;20040;-66
2022/06/01 10:51:34;;;;;;;3.97;1.80;;;;;;;30.70;29.10;99723.31;5110703;28;20032;-65
2022/06/01 10:54:21;;;;;;;5.00;1.95;;;;;;;30.58;28.58;99725.63;5104593;28;20306;-66
2022/06/01 10:56:48;;;;;;;4.05;1.67;;;;;;;30.35;28.90;99727.31;5107379;28;20365;-66
2022/06/01 10:59:16;;;;;;;8.10;2.00;;;;;;;30.61;28.42;99730.53;5093039;28;20024;-66
2022/06/01 11:02:16;;;;;;;5.43;1.77;;;;;;;31.03;28.39;99720.63;5109062;28;20349;-66
2022/06/01 11:04:59;;;;;;;5.00;2.17;;;;;;;31.15;27.16;99726.47;5109115;28;20254;-66
2022/06/01 11:07:28;;;;;;;5.67;2.00;;;;;;;31.06;26.55;99718.09;5108328;28;20356;-67
2022/06/01 11:10:00;;;;;;;7.28;2.30;;;;;;;31.11;27.08;99718.03;5106926;28;20463;-67
2022/06/01 11:12:50;;;;;;;6.03;2.30;;;;;;;31.16;27.21;99717.16;5111970;28;20058;-67
2022/06/01 11:15:56;;;;;;;5.35;2.45;;;;;;;31.16;29.57;99708.94;5103846;28;20202;-66
2022/06/01 11:18:57;;;;;;;9.10;2.20;;;;;;;31.41;28.77;99715.94;5106538;28;20055;-67
2022/06/01 11:21:41;;;;;;;2.63;1.80;;;;;;;31.51;27.18;99701.28;5098877;28;20345;-66
2022/06/01 11:24:33;;;;;;;3.83;1.85;;;;;;;31.26;28.02;99700.59;5088373;28;20039;-66
2022/06/01 11:27:07;;;;;;;5.13;1.60;;;;;;;31.21;27.88;99697.13;5107725;28;20057;-67
2022/06/01 11:29:48;;;;;;;4.95;1.80;;;;;;;31.22;27.95;99688.63;5105095;28;20303;-66
2022/06/01 11:32:28;;;;;;;4.95;1.73;;;;;;;31.24;28.62;99691.06;5106187;28;20087;-66
2022/06/01 11:35:16;;;;;;;4.80;2.28;;;;;;;31.12;28.68;99686.00;5106201;28;20043;-66
2022/06/01 11:37:50;;;;;;;2.92;1.90;;;;;;;30.87;28.29;99683.69;5106464;28;20035;-66
2022/06/01 11:40:21;;;;;;;6.90;1.90;;;;;;;30.77;28.35;99680.00;5106787;28;20046;-66
2022/06/01 11:43:00;;;;;;;2.70;1.85;;;;;;;30.70;29.89;99685.03;5106095;28;20098;-66
2022/06/01 11:45:35;;;;;;;5.03;1.85;;;;;;;30.86;29.13;99690.28;5111565;28;20028;-66
2022/06/01 11:48:07;;;;;;;5.43;2.20;;;;;;;30.96;29.12;99679.16;5103713;28;20031;-66
2022/06/01 11:50:33;;;;;;;5.03;2.10;;;;;;;30.93;29.58;99690.72;5110016;28;20048;-66
2022/06/01 11:53:01;;;;;;;4.22;1.85;;;;;;;30.94;29.65;99684.94;5104483;28;20276;-66
2022/06/01 11:55:36;;;;;;;4.63;1.88;;;;;;;30.66;31.08;99688.66;5105397;28;20284;-67
2022/06/01 11:58:10;;;;;;;7.70;2.33;;;;;;;30.58;29.41;99690.09;5114631;28;20917;-67
2022/06/01 12:00:48;;;;;;;4.45;2.08;;;;;;;30.67;29.24;99693.84;5108605;28;20110;-67
2022/06/01 12:03:19;;;;;;;4.40;2.10;;;;;;;30.78;29.33;99695.31;5115306;28;20089;-67
2022/06/01 12:06:07;;;;;;;5.22;2.40;;;;;;;30.61;30.66;99695.00;5109031;28;20039;-67
2022/06/01 12:08:39;;;;;;;4.97;2.13;;;;;;;30.56;30.66;99695.06;5109751;28;20027;-67
2022/06/01 12:11:11;;;;;;;5.18;2.30;;;;;;;30.67;30.13;99671.97;5113033;28;20035;-66
2022/06/01 12:13:36;;;;;;;5.30;1.85;;;;;;;30.87;29.56;99692.72;5106995;28;20031;-67
2022/06/01 12:16:06;;;;;;;6.35;2.20;;;;;;;30.92;28.57;99683.63;5111479;28;20036;-67